sensor_id;sensor_type;location;lat;lon;timestamp;P1;durP1;ratioP1;P2;durP2;ratioP2
19057;SDS011;9662;53.612;9.914;2022-12-29T00:00:12;3.70;;;3.60;;
19057;SDS011;9662;53.612;9.914;2022-12-29T00:02:40;3.35;;;3.25;;
19057;SDS011;9662;53.612;9.914;2022-12-29T00:05:07;3.30;;;3.20;;
19057;SDS011;9662;53.612;9.914;2022-12-29T00:07:34;3.55;;;3.45;;
19057;SDS011;9662;53.612;9.914;2022-12-29T00:10:01;3.40;;;3.20;;
19057;SDS011;9662;53.612;9.914;2022-12-29T00:12:27;3.60;;;3.40;;
19057;SDS011;9662;53.612;9.914;2022-12-29T00:15:16;3.50;;;3.30;;
19057;SDS011;9662;53.612;9.914;2022-12-29T00:18:00;3.35;;;3.22;;
19057;SDS011;9662;53.612;9.914;2022-12-29T00:20:27;3.60;;;3.40;;
19057;SDS011;9662;53.612;9.914;2022-12-29T00:23:11;3.30;;;3.20;;
19057;SDS011;9662;53.612;9.914;2022-12-29T00:25:55;3.67;;;3.57;;
19057;SDS011;9662;53.612;9.914;2022-12-29T00:28:39;3.80;;;3.60;;
19057;SDS011;9662;53.612;9.914;2022-12-29T00:31:24;3.33;;;3.22;;
19057;SDS011;9662;53.612;9.914;2022-12-29T00:34:10;3.55;;;3.40;;
19057;SDS011;9662;53.612;9.914;2022-12-29T00:36:54;3.60;;;3.40;;
19057;SDS011;9662;53.612;9.914;2022-12-29T00:39:21;3.63;;;3.42;;
19057;SDS011;9662;53.612;9.914;2022-12-29T00:42:06;3.92;;;3.63;;
19057;SDS011;9662;53.612;9.914;2022-12-29T00:44:51;4.00;;;3.80;;
19057;SDS011;9662;53.612;9.914;2022-12-29T00:47:19;4.00;;;3.90;;
19057;SDS011;9662;53.612;9.914;2022-12-29T00:49:46;3.63;;;3.42;;
19057;SDS011;9662;53.612;9.914;2022-12-29T00:52:12;3.50;;;3.40;;
19057;SDS011;9662;53.612;9.914;2022-12-29T00:54:40;3.47;;;3.38;;
19057;SDS011;9662;53.612;9.914;2022-12-29T00:57:10;4.20;;;4.00;;
19057;SDS011;9662;53.612;9.914;2022-12-29T00:59:37;4.80;;;3.75;;
19057;SDS011;9662;53.612;9.914;2022-12-29T01:02:05;3.45;;;3.35;;
19057;SDS011;9662;53.612;9.914;2022-12-29T01:04:34;3.60;;;3.50;;
19057;SDS011;9662;53.612;9.914;2022-12-29T01:07:01;3.72;;;3.53;;
19057;SDS011;9662;53.612;9.914;2022-12-29T01:09:28;3.90;;;3.60;;
19057;SDS011;9662;53.612;9.914;2022-12-29T01:12:12;5.05;;;3.55;;
19057;SDS011;9662;53.612;9.914;2022-12-29T01:14:39;3.88;;;3.70;;
19057;SDS011;9662;53.612;9.914;2022-12-29T01:17:06;3.53;;;3.42;;
19057;SDS011;9662;53.612;9.914;2022-12-29T01:19:34;3.53;;;3.40;;
19057;SDS011;9662;53.612;9.914;2022-12-29T01:22:01;3.00;;;3.00;;
19057;SDS011;9662;53.612;9.914;2022-12-29T01:24:28;3.58;;;3.38;;
19057;SDS011;9662;53.612;9.914;2022-12-29T01:26:55;3.03;;;2.92;;
19057;SDS011;9662;53.612;9.914;2022-12-29T01:29:22;3.67;;;3.47;;
19057;SDS011;9662;53.612;9.914;2022-12-29T01:31:48;3.72;;;3.42;;
19057;SDS011;9662;53.612;9.914;2022-12-29T01:34:15;3.17;;;3.08;;
19057;SDS011;9662;53.612;9.914;2022-12-29T01:36:44;3.35;;;3.25;;
19057;SDS011;9662;53.612;9.914;2022-12-29T01:39:10;3.35;;;3.25;;
19057;SDS011;9662;53.612;9.914;2022-12-29T01:41:37;3.50;;;3.40;;
19057;SDS011;9662;53.612;9.914;2022-12-29T01:47:04;3.80;;;3.70;;
19057;SDS011;9662;53.612;9.914;2022-12-29T01:49:33;4.43;;;4.03;;
19057;SDS011;9662;53.612;9.914;2022-12-29T01:52:03;3.70;;;3.60;;
19057;SDS011;9662;53.612;9.914;2022-12-29T01:54:33;3.78;;;3.67;;
19057;SDS011;9662;53.612;9.914;2022-12-29T01:57:05;3.58;;;3.47;;
19057;SDS011;9662;53.612;9.914;2022-12-29T01:59:38;4.07;;;3.97;;
19057;SDS011;9662;53.612;9.914;2022-12-29T02:02:07;4.30;;;4.10;;
19057;SDS011;9662;53.612;9.914;2022-12-29T02:04:34;4.00;;;3.88;;
19057;SDS011;9662;53.612;9.914;2022-12-29T02:07:07;4.60;;;4.18;;
19057;SDS011;9662;53.612;9.914;2022-12-29T02:09:37;3.97;;;3.88;;
19057;SDS011;9662;53.612;9.914;2022-12-29T02:12:04;4.03;;;3.92;;
19057;SDS011;9662;53.612;9.914;2022-12-29T02:14:32;3.70;;;3.60;;
19057;SDS011;9662;53.612;9.914;2022-12-29T02:17:01;4.30;;;4.10;;
19057;SDS011;9662;53.612;9.914;2022-12-29T02:19:49;4.20;;;4.10;;
19057;SDS011;9662;53.612;9.914;2022-12-29T02:22:49;5.97;;;4.15;;
19057;SDS011;9662;53.612;9.914;2022-12-29T02:25:35;4.45;;;4.15;;
19057;SDS011;9662;53.612;9.914;2022-12-29T02:28:39;4.20;;;4.10;;
19057;SDS011;9662;53.612;9.914;2022-12-29T02:31:29;4.10;;;4.00;;
19057;SDS011;9662;53.612;9.914;2022-12-29T02:34:06;4.10;;;3.90;;
19057;SDS011;9662;53.612;9.914;2022-12-29T02:36:40;4.03;;;3.83;;
19057;SDS011;9662;53.612;9.914;2022-12-29T02:39:15;3.80;;;3.70;;
19057;SDS011;9662;53.612;9.914;2022-12-29T02:41:49;3.63;;;3.42;;
19057;SDS011;9662;53.612;9.914;2022-12-29T02:44:24;3.53;;;3.42;;
19057;SDS011;9662;53.612;9.914;2022-12-29T02:46:58;4.90;;;3.47;;
19057;SDS011;9662;53.612;9.914;2022-12-29T02:49:32;5.00;;;4.18;;
19057;SDS011;9662;53.612;9.914;2022-12-29T02:52:04;3.47;;;3.37;;
19057;SDS011;9662;53.612;9.914;2022-12-29T02:54:33;3.57;;;3.27;;
19057;SDS011;9662;53.612;9.914;2022-12-29T02:57:11;3.35;;;3.10;;
19057;SDS011;9662;53.612;9.914;2022-12-29T02:59:40;3.55;;;3.45;;
19057;SDS011;9662;53.612;9.914;2022-12-29T03:02:17;3.60;;;3.50;;
19057;SDS011;9662;53.612;9.914;2022-12-29T03:04:59;3.70;;;3.60;;
19057;SDS011;9662;53.612;9.914;2022-12-29T03:07:39;3.80;;;3.42;;
19057;SDS011;9662;53.612;9.914;2022-12-29T03:10:14;3.45;;;3.35;;
19057;SDS011;9662;53.612;9.914;2022-12-29T03:12:46;4.00;;;3.67;;
19057;SDS011;9662;53.612;9.914;2022-12-29T03:15:34;3.65;;;3.35;;
19057;SDS011;9662;53.612;9.914;2022-12-29T03:18:27;4.23;;;3.23;;
19057;SDS011;9662;53.612;9.914;2022-12-29T03:21:05;3.30;;;3.20;;
19057;SDS011;9662;53.612;9.914;2022-12-29T03:23:35;3.15;;;3.05;;
19057;SDS011;9662;53.612;9.914;2022-12-29T03:26:04;2.90;;;2.80;;
19057;SDS011;9662;53.612;9.914;2022-12-29T03:28:35;3.13;;;3.03;;
19057;SDS011;9662;53.612;9.914;2022-12-29T03:31:05;2.80;;;2.70;;
19057;SDS011;9662;53.612;9.914;2022-12-29T03:33:35;2.70;;;2.60;;
19057;SDS011;9662;53.612;9.914;2022-12-29T03:36:05;5.90;;;3.13;;
19057;SDS011;9662;53.612;9.914;2022-12-29T03:38:37;3.20;;;3.00;;
19057;SDS011;9662;53.612;9.914;2022-12-29T03:41:10;2.88;;;2.78;;
19057;SDS011;9662;53.612;9.914;2022-12-29T03:43:40;3.10;;;3.00;;
19057;SDS011;9662;53.612;9.914;2022-12-29T03:46:07;2.90;;;2.70;;
19057;SDS011;9662;53.612;9.914;2022-12-29T03:48:35;3.17;;;3.03;;
19057;SDS011;9662;53.612;9.914;2022-12-29T03:51:02;2.97;;;2.92;;
19057;SDS011;9662;53.612;9.914;2022-12-29T03:53:29;2.88;;;2.88;;
19057;SDS011;9662;53.612;9.914;2022-12-29T03:55:56;3.13;;;2.97;;
19057;SDS011;9662;53.612;9.914;2022-12-29T03:58:22;3.10;;;3.00;;
19057;SDS011;9662;53.612;9.914;2022-12-29T04:00:49;3.00;;;2.90;;
19057;SDS011;9662;53.612;9.914;2022-12-29T04:03:16;2.90;;;2.90;;
19057;SDS011;9662;53.612;9.914;2022-12-29T04:05:44;2.97;;;2.88;;
19057;SDS011;9662;53.612;9.914;2022-12-29T04:08:11;3.00;;;2.90;;
19057;SDS011;9662;53.612;9.914;2022-12-29T04:10:38;3.00;;;2.90;;
19057;SDS011;9662;53.612;9.914;2022-12-29T04:13:04;2.60;;;2.60;;
19057;SDS011;9662;53.612;9.914;2022-12-29T04:15:31;2.60;;;2.40;;
19057;SDS011;9662;53.612;9.914;2022-12-29T04:17:58;2.53;;;2.53;;
19057;SDS011;9662;53.612;9.914;2022-12-29T04:20:25;2.70;;;2.50;;
19057;SDS011;9662;53.612;9.914;2022-12-29T04:23:10;2.55;;;2.47;;
19057;SDS011;9662;53.612;9.914;2022-12-29T04:25:37;2.60;;;2.50;;
19057;SDS011;9662;53.612;9.914;2022-12-29T04:28:04;2.20;;;2.20;;
19057;SDS011;9662;53.612;9.914;2022-12-29T04:30:32;2.00;;;2.00;;
19057;SDS011;9662;53.612;9.914;2022-12-29T04:32:59;2.33;;;2.15;;
19057;SDS011;9662;53.612;9.914;2022-12-29T04:35:26;2.10;;;2.10;;
19057;SDS011;9662;53.612;9.914;2022-12-29T04:37:53;1.80;;;1.70;;
19057;SDS011;9662;53.612;9.914;2022-12-29T04:40:21;1.80;;;1.80;;
19057;SDS011;9662;53.612;9.914;2022-12-29T04:42:49;2.05;;;1.70;;
19057;SDS011;9662;53.612;9.914;2022-12-29T04:45:15;1.63;;;1.63;;
19057;SDS011;9662;53.612;9.914;2022-12-29T04:47:43;1.70;;;1.70;;
19057;SDS011;9662;53.612;9.914;2022-12-29T04:50:09;1.80;;;1.80;;
19057;SDS011;9662;53.612;9.914;2022-12-29T04:52:36;1.60;;;1.60;;
19057;SDS011;9662;53.612;9.914;2022-12-29T04:55:04;1.80;;;1.70;;
19057;SDS011;9662;53.612;9.914;2022-12-29T04:57:33;1.70;;;1.70;;
19057;SDS011;9662;53.612;9.914;2022-12-29T04:59:59;1.73;;;1.73;;
19057;SDS011;9662;53.612;9.914;2022-12-29T05:02:26;1.70;;;1.70;;
19057;SDS011;9662;53.612;9.914;2022-12-29T05:04:53;1.63;;;1.63;;
19057;SDS011;9662;53.612;9.914;2022-12-29T05:07:20;1.80;;;1.80;;
19057;SDS011;9662;53.612;9.914;2022-12-29T05:09:47;1.80;;;1.80;;
19057;SDS011;9662;53.612;9.914;2022-12-29T05:12:13;4.95;;;1.90;;
19057;SDS011;9662;53.612;9.914;2022-12-29T05:14:42;1.70;;;1.70;;
19057;SDS011;9662;53.612;9.914;2022-12-29T05:17:08;1.98;;;1.90;;
19057;SDS011;9662;53.612;9.914;2022-12-29T05:19:35;1.70;;;1.70;;
19057;SDS011;9662;53.612;9.914;2022-12-29T05:22:03;1.70;;;1.70;;
19057;SDS011;9662;53.612;9.914;2022-12-29T05:24:30;1.70;;;1.70;;
19057;SDS011;9662;53.612;9.914;2022-12-29T05:26:57;1.95;;;1.77;;
19057;SDS011;9662;53.612;9.914;2022-12-29T05:29:24;1.80;;;1.80;;
19057;SDS011;9662;53.612;9.914;2022-12-29T05:31:52;2.90;;;1.90;;
19057;SDS011;9662;53.612;9.914;2022-12-29T05:34:18;1.90;;;1.90;;
19057;SDS011;9662;53.612;9.914;2022-12-29T05:36:45;1.90;;;1.90;;
19057;SDS011;9662;53.612;9.914;2022-12-29T05:39:12;2.23;;;2.13;;
19057;SDS011;9662;53.612;9.914;2022-12-29T05:41:39;2.42;;;2.42;;
19057;SDS011;9662;53.612;9.914;2022-12-29T05:44:06;2.20;;;2.20;;
19057;SDS011;9662;53.612;9.914;2022-12-29T05:46:32;2.33;;;2.33;;
19057;SDS011;9662;53.612;9.914;2022-12-29T05:49:00;2.22;;;2.22;;
19057;SDS011;9662;53.612;9.914;2022-12-29T05:51:27;2.30;;;2.10;;
19057;SDS011;9662;53.612;9.914;2022-12-29T05:53:54;2.08;;;2.08;;
19057;SDS011;9662;53.612;9.914;2022-12-29T05:56:21;3.33;;;2.20;;
19057;SDS011;9662;53.612;9.914;2022-12-29T05:58:48;2.38;;;2.15;;
19057;SDS011;9662;53.612;9.914;2022-12-29T06:01:15;2.00;;;2.00;;
19057;SDS011;9662;53.612;9.914;2022-12-29T06:03:41;1.92;;;1.92;;
19057;SDS011;9662;53.612;9.914;2022-12-29T06:06:10;1.75;;;1.75;;
19057;SDS011;9662;53.612;9.914;2022-12-29T06:08:36;1.80;;;1.80;;
19057;SDS011;9662;53.612;9.914;2022-12-29T06:11:03;1.75;;;1.75;;
19057;SDS011;9662;53.612;9.914;2022-12-29T06:13:30;1.80;;;1.80;;
19057;SDS011;9662;53.612;9.914;2022-12-29T06:15:58;2.57;;;1.80;;
19057;SDS011;9662;53.612;9.914;2022-12-29T06:18:24;3.83;;;1.98;;
19057;SDS011;9662;53.612;9.914;2022-12-29T06:20:51;3.83;;;2.08;;
19057;SDS011;9662;53.612;9.914;2022-12-29T06:23:19;2.00;;;2.00;;
19057;SDS011;9662;53.612;9.914;2022-12-29T06:25:47;5.90;;;2.22;;
19057;SDS011;9662;53.612;9.914;2022-12-29T06:28:14;2.13;;;2.05;;
19057;SDS011;9662;53.612;9.914;2022-12-29T06:30:42;2.00;;;2.00;;
19057;SDS011;9662;53.612;9.914;2022-12-29T06:33:10;2.20;;;2.10;;
19057;SDS011;9662;53.612;9.914;2022-12-29T06:35:37;1.83;;;1.83;;
19057;SDS011;9662;53.612;9.914;2022-12-29T06:38:04;2.22;;;2.13;;
19057;SDS011;9662;53.612;9.914;2022-12-29T06:40:33;1.80;;;1.80;;
19057;SDS011;9662;53.612;9.914;2022-12-29T06:42:59;2.00;;;1.97;;
19057;SDS011;9662;53.612;9.914;2022-12-29T06:45:26;2.40;;;2.10;;
19057;SDS011;9662;53.612;9.914;2022-12-29T06:47:53;1.90;;;1.90;;
19057;SDS011;9662;53.612;9.914;2022-12-29T06:50:20;2.28;;;2.17;;
19057;SDS011;9662;53.612;9.914;2022-12-29T06:52:46;2.40;;;2.30;;
19057;SDS011;9662;53.612;9.914;2022-12-29T06:55:13;2.10;;;2.00;;
19057;SDS011;9662;53.612;9.914;2022-12-29T06:57:42;2.10;;;2.10;;
19057;SDS011;9662;53.612;9.914;2022-12-29T07:00:09;1.98;;;1.98;;
19057;SDS011;9662;53.612;9.914;2022-12-29T07:02:37;2.03;;;2.03;;
19057;SDS011;9662;53.612;9.914;2022-12-29T07:05:04;1.50;;;1.50;;
19057;SDS011;9662;53.612;9.914;2022-12-29T07:07:32;2.05;;;2.05;;
19057;SDS011;9662;53.612;9.914;2022-12-29T07:09:59;1.70;;;1.70;;
19057;SDS011;9662;53.612;9.914;2022-12-29T07:12:25;1.80;;;1.80;;
19057;SDS011;9662;53.612;9.914;2022-12-29T07:14:53;1.97;;;1.90;;
19057;SDS011;9662;53.612;9.914;2022-12-29T07:17:20;2.10;;;2.00;;
19057;SDS011;9662;53.612;9.914;2022-12-29T07:19:47;2.08;;;2.00;;
19057;SDS011;9662;53.612;9.914;2022-12-29T07:22:14;2.40;;;2.10;;
19057;SDS011;9662;53.612;9.914;2022-12-29T07:24:41;1.80;;;1.80;;
19057;SDS011;9662;53.612;9.914;2022-12-29T07:27:08;1.90;;;1.90;;
19057;SDS011;9662;53.612;9.914;2022-12-29T07:29:36;1.80;;;1.80;;
19057;SDS011;9662;53.612;9.914;2022-12-29T07:32:04;1.90;;;1.90;;
19057;SDS011;9662;53.612;9.914;2022-12-29T07:34:31;2.00;;;2.00;;
19057;SDS011;9662;53.612;9.914;2022-12-29T07:36:58;1.92;;;1.92;;
19057;SDS011;9662;53.612;9.914;2022-12-29T07:39:25;2.22;;;2.22;;
19057;SDS011;9662;53.612;9.914;2022-12-29T07:41:51;2.00;;;2.00;;
19057;SDS011;9662;53.612;9.914;2022-12-29T07:44:18;2.00;;;2.00;;
19057;SDS011;9662;53.612;9.914;2022-12-29T07:46:45;2.23;;;2.13;;
19057;SDS011;9662;53.612;9.914;2022-12-29T07:49:13;2.30;;;2.30;;
19057;SDS011;9662;53.612;9.914;2022-12-29T07:51:40;3.50;;;2.17;;
19057;SDS011;9662;53.612;9.914;2022-12-29T07:54:08;2.35;;;2.15;;
19057;SDS011;9662;53.612;9.914;2022-12-29T07:56:35;2.30;;;2.30;;
19057;SDS011;9662;53.612;9.914;2022-12-29T07:59:02;2.00;;;2.00;;
19057;SDS011;9662;53.612;9.914;2022-12-29T08:01:29;1.88;;;1.88;;
19057;SDS011;9662;53.612;9.914;2022-12-29T08:03:56;1.92;;;1.92;;
19057;SDS011;9662;53.612;9.914;2022-12-29T08:06:24;2.17;;;2.00;;
19057;SDS011;9662;53.612;9.914;2022-12-29T08:08:50;2.50;;;2.38;;
19057;SDS011;9662;53.612;9.914;2022-12-29T08:11:17;5.45;;;2.80;;
19057;SDS011;9662;53.612;9.914;2022-12-29T08:13:45;2.38;;;2.17;;
19057;SDS011;9662;53.612;9.914;2022-12-29T08:16:11;2.10;;;2.10;;
19057;SDS011;9662;53.612;9.914;2022-12-29T08:18:38;2.00;;;1.90;;
19057;SDS011;9662;53.612;9.914;2022-12-29T08:21:05;1.80;;;1.70;;
19057;SDS011;9662;53.612;9.914;2022-12-29T08:23:33;1.73;;;1.63;;
19057;SDS011;9662;53.612;9.914;2022-12-29T08:26:01;1.67;;;1.60;;
19057;SDS011;9662;53.612;9.914;2022-12-29T08:28:30;1.85;;;1.85;;
19057;SDS011;9662;53.612;9.914;2022-12-29T08:30:58;1.90;;;1.80;;
19057;SDS011;9662;53.612;9.914;2022-12-29T08:33:26;1.60;;;1.60;;
19057;SDS011;9662;53.612;9.914;2022-12-29T08:35:58;1.70;;;1.70;;
19057;SDS011;9662;53.612;9.914;2022-12-29T08:38:26;1.77;;;1.67;;
19057;SDS011;9662;53.612;9.914;2022-12-29T08:40:55;1.70;;;1.70;;
19057;SDS011;9662;53.612;9.914;2022-12-29T08:43:22;1.80;;;1.80;;
19057;SDS011;9662;53.612;9.914;2022-12-29T08:45:49;2.08;;;1.98;;
19057;SDS011;9662;53.612;9.914;2022-12-29T08:48:15;1.90;;;1.80;;
19057;SDS011;9662;53.612;9.914;2022-12-29T08:50:44;1.88;;;1.77;;
19057;SDS011;9662;53.612;9.914;2022-12-29T08:53:12;1.92;;;1.92;;
19057;SDS011;9662;53.612;9.914;2022-12-29T08:55:39;1.70;;;1.70;;
19057;SDS011;9662;53.612;9.914;2022-12-29T08:58:07;1.83;;;1.73;;
19057;SDS011;9662;53.612;9.914;2022-12-29T09:00:34;1.50;;;1.50;;
19057;SDS011;9662;53.612;9.914;2022-12-29T09:03:01;1.77;;;1.67;;
19057;SDS011;9662;53.612;9.914;2022-12-29T09:05:27;1.83;;;1.60;;
19057;SDS011;9662;53.612;9.914;2022-12-29T09:07:54;4.93;;;1.77;;
19057;SDS011;9662;53.612;9.914;2022-12-29T09:10:21;1.52;;;1.42;;
19057;SDS011;9662;53.612;9.914;2022-12-29T09:12:48;1.95;;;1.88;;
19057;SDS011;9662;53.612;9.914;2022-12-29T09:15:16;1.33;;;1.33;;
19057;SDS011;9662;53.612;9.914;2022-12-29T09:17:43;1.80;;;1.40;;
19057;SDS011;9662;53.612;9.914;2022-12-29T09:20:11;1.70;;;1.60;;
19057;SDS011;9662;53.612;9.914;2022-12-29T09:22:38;2.45;;;1.50;;
19057;SDS011;9662;53.612;9.914;2022-12-29T09:25:05;1.60;;;1.60;;
19057;SDS011;9662;53.612;9.914;2022-12-29T09:27:34;2.15;;;1.30;;
19057;SDS011;9662;53.612;9.914;2022-12-29T09:30:03;1.67;;;1.58;;
19057;SDS011;9662;53.612;9.914;2022-12-29T09:32:32;1.60;;;1.50;;
19057;SDS011;9662;53.612;9.914;2022-12-29T09:34:59;2.00;;;1.40;;
19057;SDS011;9662;53.612;9.914;2022-12-29T09:37:26;1.67;;;1.48;;
19057;SDS011;9662;53.612;9.914;2022-12-29T09:39:52;1.38;;;1.27;;
19057;SDS011;9662;53.612;9.914;2022-12-29T09:42:22;2.17;;;1.23;;
19057;SDS011;9662;53.612;9.914;2022-12-29T09:44:56;1.92;;;1.50;;
19057;SDS011;9662;53.612;9.914;2022-12-29T09:47:32;3.08;;;1.52;;
19057;SDS011;9662;53.612;9.914;2022-12-29T09:49:59;3.17;;;1.65;;
19057;SDS011;9662;53.612;9.914;2022-12-29T09:52:30;1.77;;;1.52;;
19057;SDS011;9662;53.612;9.914;2022-12-29T09:55:02;5.45;;;1.63;;
19057;SDS011;9662;53.612;9.914;2022-12-29T09:57:32;4.15;;;1.60;;
19057;SDS011;9662;53.612;9.914;2022-12-29T10:00:05;1.90;;;1.80;;
19057;SDS011;9662;53.612;9.914;2022-12-29T10:02:39;2.90;;;1.45;;
19057;SDS011;9662;53.612;9.914;2022-12-29T10:05:20;1.60;;;1.47;;
19057;SDS011;9662;53.612;9.914;2022-12-29T10:07:57;3.40;;;1.38;;
19057;SDS011;9662;53.612;9.914;2022-12-29T10:10:38;1.88;;;1.70;;
19057;SDS011;9662;53.612;9.914;2022-12-29T10:13:18;1.55;;;1.42;;
19057;SDS011;9662;53.612;9.914;2022-12-29T10:16:00;5.28;;;1.50;;
19057;SDS011;9662;53.612;9.914;2022-12-29T10:18:39;1.75;;;1.30;;
19057;SDS011;9662;53.612;9.914;2022-12-29T10:21:17;1.77;;;1.67;;
19057;SDS011;9662;53.612;9.914;2022-12-29T10:23:54;2.83;;;1.65;;
19057;SDS011;9662;53.612;9.914;2022-12-29T10:26:23;6.40;;;1.45;;
19057;SDS011;9662;53.612;9.914;2022-12-29T10:28:54;1.90;;;1.60;;
19057;SDS011;9662;53.612;9.914;2022-12-29T10:31:24;2.35;;;2.25;;
19057;SDS011;9662;53.612;9.914;2022-12-29T10:33:59;3.60;;;1.80;;
19057;SDS011;9662;53.612;9.914;2022-12-29T10:36:39;2.70;;;1.65;;
19057;SDS011;9662;53.612;9.914;2022-12-29T10:39:26;3.47;;;1.45;;
19057;SDS011;9662;53.612;9.914;2022-12-29T10:42:11;4.07;;;1.80;;
19057;SDS011;9662;53.612;9.914;2022-12-29T10:45:02;3.03;;;1.83;;
19057;SDS011;9662;53.612;9.914;2022-12-29T10:47:42;5.40;;;1.52;;
19057;SDS011;9662;53.612;9.914;2022-12-29T10:53:34;1.67;;;1.57;;
19057;SDS011;9662;53.612;9.914;2022-12-29T10:56:25;3.63;;;1.63;;
19057;SDS011;9662;53.612;9.914;2022-12-29T10:58:58;4.93;;;1.60;;
19057;SDS011;9662;53.612;9.914;2022-12-29T11:01:33;2.80;;;1.60;;
19057;SDS011;9662;53.612;9.914;2022-12-29T11:04:07;3.33;;;1.80;;
19057;SDS011;9662;53.612;9.914;2022-12-29T11:06:52;6.13;;;1.67;;
19057;SDS011;9662;53.612;9.914;2022-12-29T11:09:22;3.42;;;1.70;;
19057;SDS011;9662;53.612;9.914;2022-12-29T11:11:53;1.65;;;1.55;;
19057;SDS011;9662;53.612;9.914;2022-12-29T11:14:21;5.53;;;1.63;;
19057;SDS011;9662;53.612;9.914;2022-12-29T11:16:56;5.93;;;1.60;;
19057;SDS011;9662;53.612;9.914;2022-12-29T11:19:25;3.80;;;1.60;;
19057;SDS011;9662;53.612;9.914;2022-12-29T11:21:54;2.47;;;1.42;;
19057;SDS011;9662;53.612;9.914;2022-12-29T11:24:37;2.50;;;1.52;;
19057;SDS011;9662;53.612;9.914;2022-12-29T11:27:13;2.87;;;1.27;;
19057;SDS011;9662;53.612;9.914;2022-12-29T11:29:41;2.58;;;1.50;;
19057;SDS011;9662;53.612;9.914;2022-12-29T11:32:11;5.63;;;1.60;;
19057;SDS011;9662;53.612;9.914;2022-12-29T11:34:39;1.50;;;1.40;;
19057;SDS011;9662;53.612;9.914;2022-12-29T11:37:10;4.32;;;1.85;;
19057;SDS011;9662;53.612;9.914;2022-12-29T11:39:39;2.80;;;1.27;;
19057;SDS011;9662;53.612;9.914;2022-12-29T11:42:12;4.50;;;1.90;;
19057;SDS011;9662;53.612;9.914;2022-12-29T11:44:43;4.03;;;1.65;;
19057;SDS011;9662;53.612;9.914;2022-12-29T11:47:13;1.30;;;1.30;;
19057;SDS011;9662;53.612;9.914;2022-12-29T11:49:49;1.52;;;1.27;;
19057;SDS011;9662;53.612;9.914;2022-12-29T11:52:21;1.33;;;1.33;;
19057;SDS011;9662;53.612;9.914;2022-12-29T11:54:49;1.55;;;1.45;;
19057;SDS011;9662;53.612;9.914;2022-12-29T11:57:18;1.35;;;1.35;;
19057;SDS011;9662;53.612;9.914;2022-12-29T11:59:49;1.40;;;1.33;;
19057;SDS011;9662;53.612;9.914;2022-12-29T12:02:36;1.80;;;1.45;;
19057;SDS011;9662;53.612;9.914;2022-12-29T12:05:13;2.30;;;1.70;;
19057;SDS011;9662;53.612;9.914;2022-12-29T12:07:49;1.50;;;1.40;;
19057;SDS011;9662;53.612;9.914;2022-12-29T12:10:23;1.80;;;1.15;;
19057;SDS011;9662;53.612;9.914;2022-12-29T12:12:56;3.88;;;1.50;;
19057;SDS011;9662;53.612;9.914;2022-12-29T12:15:31;1.45;;;1.30;;
19057;SDS011;9662;53.612;9.914;2022-12-29T12:18:03;4.20;;;1.95;;
19057;SDS011;9662;53.612;9.914;2022-12-29T12:20:38;3.70;;;1.48;;
19057;SDS011;9662;53.612;9.914;2022-12-29T12:23:16;1.90;;;1.50;;
19057;SDS011;9662;53.612;9.914;2022-12-29T12:25:53;6.93;;;1.48;;
19057;SDS011;9662;53.612;9.914;2022-12-29T12:28:26;10.63;;;6.70;;
19057;SDS011;9662;53.612;9.914;2022-12-29T12:31:02;5.53;;;1.57;;
19057;SDS011;9662;53.612;9.914;2022-12-29T12:33:31;1.40;;;1.40;;
19057;SDS011;9662;53.612;9.914;2022-12-29T12:36:06;2.77;;;1.70;;
19057;SDS011;9662;53.612;9.914;2022-12-29T12:38:46;3.20;;;1.30;;
19057;SDS011;9662;53.612;9.914;2022-12-29T12:41:20;1.60;;;1.50;;
19057;SDS011;9662;53.612;9.914;2022-12-29T12:44:00;2.78;;;1.42;;
19057;SDS011;9662;53.612;9.914;2022-12-29T12:46:42;2.43;;;1.70;;
19057;SDS011;9662;53.612;9.914;2022-12-29T12:49:41;2.83;;;1.70;;
19057;SDS011;9662;53.612;9.914;2022-12-29T12:52:25;5.38;;;1.58;;
19057;SDS011;9662;53.612;9.914;2022-12-29T12:55:17;6.10;;;1.90;;
19057;SDS011;9662;53.612;9.914;2022-12-29T12:57:56;2.37;;;1.73;;
19057;SDS011;9662;53.612;9.914;2022-12-29T13:00:32;3.65;;;2.20;;
19057;SDS011;9662;53.612;9.914;2022-12-29T13:03:05;6.43;;;2.00;;
19057;SDS011;9662;53.612;9.914;2022-12-29T13:05:42;1.63;;;1.63;;
19057;SDS011;9662;53.612;9.914;2022-12-29T13:08:26;1.80;;;1.70;;
19057;SDS011;9662;53.612;9.914;2022-12-29T13:11:15;4.27;;;1.60;;
19057;SDS011;9662;53.612;9.914;2022-12-29T14:15:18;1.75;;;1.58;;
19057;SDS011;9662;53.612;9.914;2022-12-29T14:18:26;1.75;;;1.65;;
19057;SDS011;9662;53.612;9.914;2022-12-29T14:21:33;5.00;;;1.63;;
19057;SDS011;9662;53.612;9.914;2022-12-29T14:24:27;3.03;;;1.95;;
19057;SDS011;9662;53.612;9.914;2022-12-29T14:33:25;6.70;;;1.95;;
19057;SDS011;9662;53.612;9.914;2022-12-29T14:35:54;1.90;;;1.48;;
19057;SDS011;9662;53.612;9.914;2022-12-29T14:38:28;3.67;;;1.67;;
19057;SDS011;9662;53.612;9.914;2022-12-29T14:44:00;4.97;;;1.80;;
19057;SDS011;9662;53.612;9.914;2022-12-29T14:46:44;4.18;;;1.65;;
19057;SDS011;9662;53.612;9.914;2022-12-29T14:49:15;1.80;;;1.58;;
19057;SDS011;9662;53.612;9.914;2022-12-29T14:51:44;1.75;;;1.65;;
19057;SDS011;9662;53.612;9.914;2022-12-29T14:57:19;6.38;;;2.45;;
19057;SDS011;9662;53.612;9.914;2022-12-29T14:59:52;4.03;;;2.20;;
19057;SDS011;9662;53.612;9.914;2022-12-29T15:02:22;2.67;;;2.00;;
19057;SDS011;9662;53.612;9.914;2022-12-29T15:04:53;6.65;;;2.35;;
19057;SDS011;9662;53.612;9.914;2022-12-29T15:07:26;6.60;;;1.88;;
19057;SDS011;9662;53.612;9.914;2022-12-29T15:09:54;3.53;;;1.75;;
19057;SDS011;9662;53.612;9.914;2022-12-29T15:12:29;8.23;;;2.65;;
19057;SDS011;9662;53.612;9.914;2022-12-29T15:15:10;3.97;;;2.08;;
19057;SDS011;9662;53.612;9.914;2022-12-29T15:17:44;3.42;;;2.03;;
19057;SDS011;9662;53.612;9.914;2022-12-29T15:20:16;2.60;;;1.70;;
19057;SDS011;9662;53.612;9.914;2022-12-29T15:22:48;11.60;;;2.17;;
19057;SDS011;9662;53.612;9.914;2022-12-29T15:25:19;3.13;;;1.87;;
19057;SDS011;9662;53.612;9.914;2022-12-29T15:27:50;3.80;;;2.10;;
19057;SDS011;9662;53.612;9.914;2022-12-29T15:30:20;4.25;;;1.92;;
19057;SDS011;9662;53.612;9.914;2022-12-29T15:32:47;4.30;;;2.38;;
19057;SDS011;9662;53.612;9.914;2022-12-29T15:52:10;2.10;;;2.00;;
19057;SDS011;9662;53.612;9.914;2022-12-29T15:55:10;8.30;;;2.50;;
19057;SDS011;9662;53.612;9.914;2022-12-29T15:58:20;5.18;;;1.90;;
19057;SDS011;9662;53.612;9.914;2022-12-29T16:11:00;3.40;;;2.20;;
19057;SDS011;9662;53.612;9.914;2022-12-29T16:13:30;2.03;;;1.90;;
19057;SDS011;9662;53.612;9.914;2022-12-29T16:16:07;2.25;;;2.15;;
19057;SDS011;9662;53.612;9.914;2022-12-29T16:18:50;5.25;;;2.78;;
19057;SDS011;9662;53.612;9.914;2022-12-29T16:21:21;3.03;;;2.20;;
19057;SDS011;9662;53.612;9.914;2022-12-29T16:23:57;8.98;;;2.40;;
19057;SDS011;9662;53.612;9.914;2022-12-29T16:26:37;2.28;;;2.00;;
19057;SDS011;9662;53.612;9.914;2022-12-29T16:29:06;3.10;;;2.03;;
19057;SDS011;9662;53.612;9.914;2022-12-29T16:31:34;2.37;;;2.17;;
19057;SDS011;9662;53.612;9.914;2022-12-29T16:34:11;2.40;;;2.10;;
19057;SDS011;9662;53.612;9.914;2022-12-29T16:36:40;4.43;;;2.38;;
19057;SDS011;9662;53.612;9.914;2022-12-29T16:39:24;3.90;;;2.53;;
19057;SDS011;9662;53.612;9.914;2022-12-29T16:41:57;10.40;;;2.78;;
19057;SDS011;9662;53.612;9.914;2022-12-29T16:44:25;2.63;;;2.42;;
19057;SDS011;9662;53.612;9.914;2022-12-29T16:47:02;4.85;;;2.72;;
19057;SDS011;9662;53.612;9.914;2022-12-29T16:49:45;3.50;;;2.50;;
19057;SDS011;9662;53.612;9.914;2022-12-29T16:52:20;3.40;;;2.78;;
19057;SDS011;9662;53.612;9.914;2022-12-29T16:54:50;3.30;;;2.35;;
19057;SDS011;9662;53.612;9.914;2022-12-29T16:57:24;3.72;;;2.25;;
19057;SDS011;9662;53.612;9.914;2022-12-29T16:59:54;5.90;;;2.60;;
19057;SDS011;9662;53.612;9.914;2022-12-29T17:02:25;2.08;;;1.98;;
19057;SDS011;9662;53.612;9.914;2022-12-29T17:04:54;4.70;;;2.67;;
19057;SDS011;9662;53.612;9.914;2022-12-29T17:07:22;5.30;;;2.50;;
19057;SDS011;9662;53.612;9.914;2022-12-29T17:09:49;4.35;;;2.40;;
19057;SDS011;9662;53.612;9.914;2022-12-29T17:12:18;2.50;;;2.30;;
19057;SDS011;9662;53.612;9.914;2022-12-29T17:14:50;5.45;;;2.95;;